createdAt,value
2019-04-14T00:01:17.238Z,43.25
2019-04-14T00:06:20.135Z,44.75
2019-04-14T00:08:50.059Z,42.17
2019-04-14T00:11:19.137Z,42.23
2019-04-14T00:13:50.230Z,41.63
2019-04-14T00:16:18.819Z,43.38
2019-04-14T00:18:47.298Z,42.48
2019-04-14T00:21:15.757Z,40.03
2019-04-14T00:23:45.523Z,41.48
2019-04-14T00:26:31.696Z,42.95
2019-04-14T00:29:00.266Z,43.13
2019-04-14T00:31:30.589Z,46.02
2019-04-14T00:34:00.928Z,44.75
2019-04-14T00:36:34.817Z,44.25
2019-04-14T00:39:05.341Z,41.80
2019-04-14T00:41:43.870Z,45.43
2019-04-14T00:44:16.966Z,44.75
2019-04-14T00:46:47.495Z,45.88
2019-04-14T00:49:16.047Z,41.75
2019-04-14T00:51:45.977Z,42.55
2019-04-14T00:54:15.446Z,45.65
2019-04-14T00:56:44.056Z,44.38
2019-04-14T00:59:13.551Z,44.83
2019-04-14T01:01:42.172Z,38.60
2019-04-14T01:04:12.152Z,39.65
2019-04-14T01:06:41.110Z,42.08
2019-04-14T01:09:12.845Z,44.67
2019-04-14T01:11:42.144Z,42.90
2019-04-14T01:14:10.712Z,42.08
2019-04-14T01:16:39.444Z,42.43
2019-04-14T01:19:09.069Z,46.55
2019-04-14T01:21:39.112Z,44.23
2019-04-14T01:24:07.962Z,43.50
2019-04-14T01:26:37.728Z,41.63
2019-04-14T01:29:06.303Z,38.78
2019-04-14T01:31:35.992Z,43.15
2019-04-14T01:34:04.575Z,42.60
2019-04-14T01:36:33.052Z,43.87
2019-04-14T01:39:02.522Z,41.73
2019-04-14T01:41:31.107Z,41.60
2019-04-14T01:44:00.346Z,44.45
2019-04-14T01:46:32.266Z,43.60
2019-04-14T01:48:59.188Z,41.90
2019-04-14T01:51:41.883Z,42.50
2019-04-14T01:54:14.990Z,43.73
2019-04-14T01:56:49.241Z,45.10
2019-04-14T01:59:19.764Z,48.50
2019-04-14T02:01:50.095Z,40.78
2019-04-14T02:04:18.846Z,46.98
2019-04-14T02:06:48.397Z,42.73
2019-04-14T02:09:18.561Z,43.63
2019-04-14T02:11:48.730Z,48.90
2019-04-14T02:14:17.419Z,44.53
2019-04-14T02:16:52.169Z,43.83
2019-04-14T02:19:17.701Z,45.85
2019-04-14T02:21:47.663Z,45.80
2019-04-14T02:24:17.737Z,41.63
2019-04-14T02:26:47.926Z,41.20
2019-04-14T02:29:16.815Z,41.42
2019-04-14T02:32:13.871Z,43.02
2019-04-14T02:34:47.990Z,43.75
2019-04-14T02:37:24.384Z,45.35
2019-04-14T02:39:49.952Z,44.73
2019-04-14T02:42:28.266Z,45.03
2019-04-14T02:47:47.243Z,46.40
2019-04-14T02:49:44.106Z,43.70
2019-04-14T02:52:20.435Z,43.13
2019-04-14T02:54:53.720Z,43.40
2019-04-14T02:57:19.975Z,42.30
2019-04-14T02:59:44.618Z,44.30
2019-04-14T03:02:24.760Z,40.75
2019-04-14T03:04:45.343Z,42.35
2019-04-14T03:07:23.178Z,39.48
2019-04-14T03:09:53.750Z,42.48
2019-04-14T03:12:16.411Z,41.48
2019-04-14T03:14:47.704Z,40.48
2019-04-14T03:22:55.772Z,40.75
2019-04-14T03:25:09.687Z,43.05
2019-04-14T03:27:55.148Z,43.78
2019-04-14T03:36:05.371Z,44.80
2019-04-14T03:38:00.975Z,43.95
2019-04-14T03:43:04.019Z,44.90
2019-04-14T03:45:35.972Z,43.13
2019-04-14T03:50:29.166Z,40.25
2019-04-14T03:53:09.920Z,39.13
2019-04-14T03:55:20.243Z,41.20
2019-04-14T03:57:37.394Z,41.37
2019-04-14T04:00:07.471Z,40.03
2019-04-14T04:02:36.382Z,41.40
2019-04-14T04:05:06.464Z,41.50
2019-04-14T04:07:35.049Z,36.98
2019-04-14T04:10:07.228Z,38.75
2019-04-14T04:12:35.895Z,40.45
2019-04-14T04:15:06.217Z,39.38
2019-04-14T04:17:39.404Z,42.27
2019-04-14T04:20:26.310Z,41.80
2019-04-14T04:22:56.907Z,38.30
2019-04-14T04:25:27.004Z,42.15
2019-04-14T04:27:57.099Z,40.70
2019-04-14T04:30:30.117Z,42.73
2019-04-14T04:33:19.665Z,41.23
2019-04-14T04:35:58.907Z,37.42
2019-04-14T04:38:29.282Z,40.45
2019-04-14T04:40:57.739Z,40.00
2019-04-14T04:43:27.584Z,38.23
2019-04-14T04:45:56.215Z,40.10
2019-04-14T04:48:24.693Z,39.15
2019-04-14T04:50:54.225Z,42.13
2019-04-14T04:53:22.876Z,39.70
2019-04-14T04:55:52.481Z,39.98
2019-04-14T04:58:21.617Z,39.18
2019-04-14T05:00:52.568Z,37.88
2019-04-14T05:03:21.144Z,38.90
2019-04-14T05:06:27.135Z,40.17
2019-04-14T05:09:07.915Z,37.55
2019-04-14T05:11:38.427Z,43.73
2019-04-14T05:14:08.855Z,39.48
2019-04-14T05:16:37.651Z,43.55
2019-04-14T05:19:18.495Z,42.80
2019-04-14T05:21:36.657Z,44.18
2019-04-14T05:24:07.037Z,41.00
2019-04-14T05:26:35.731Z,42.90
2019-04-14T05:29:04.326Z,43.08
2019-04-14T05:31:34.375Z,44.35
2019-04-14T05:34:02.845Z,40.20
2019-04-14T05:36:32.488Z,39.55
2019-04-14T05:39:01.107Z,40.40
2019-04-14T05:41:30.781Z,42.17
2019-04-14T05:44:01.520Z,40.30
2019-04-14T05:46:29.675Z,38.85
2019-04-14T05:48:58.143Z,38.15
2019-04-14T05:51:28.315Z,38.73
2019-04-14T05:53:56.927Z,36.60
2019-04-14T05:56:25.717Z,40.38
2019-04-14T05:58:54.238Z,38.00
2019-04-14T06:01:22.972Z,36.48
2019-04-14T06:03:51.825Z,37.38
2019-04-14T06:06:20.440Z,37.20
2019-04-14T06:08:48.971Z,38.40
2019-04-14T06:11:17.742Z,37.35
2019-04-14T06:13:46.204Z,36.50
2019-04-14T06:16:15.023Z,34.95
2019-04-14T06:18:43.485Z,35.43
2019-04-14T06:21:11.961Z,35.55
2019-04-14T06:23:40.415Z,35.98
2019-04-14T06:26:09.169Z,36.93
2019-04-14T06:28:37.697Z,33.75
2019-04-14T06:31:10.540Z,33.25
2019-04-14T06:33:41.683Z,34.48
2019-04-14T06:36:11.800Z,32.45
2019-04-14T06:38:47.878Z,34.05
2019-04-14T06:41:18.099Z,33.98
2019-04-14T06:43:49.166Z,31.70
2019-04-14T06:46:17.141Z,36.40
2019-04-14T06:48:45.623Z,32.58
2019-04-14T06:51:14.100Z,33.85
2019-04-14T06:53:42.640Z,32.70
2019-04-14T06:56:11.112Z,34.15
2019-04-14T06:58:39.823Z,37.00
2019-04-14T07:01:08.305Z,37.83
2019-04-14T07:03:36.839Z,39.53
2019-04-14T07:06:05.611Z,41.23
2019-04-14T07:08:34.071Z,38.13
2019-04-14T07:11:02.535Z,39.00
2019-04-14T07:13:31.011Z,40.20
2019-04-14T07:15:59.754Z,39.73
2019-04-14T07:18:28.221Z,39.90
2019-04-14T07:20:57.040Z,40.05
2019-04-14T07:23:25.587Z,40.83
2019-04-14T07:25:54.052Z,41.00
2019-04-14T07:28:22.794Z,41.65
2019-04-14T07:30:59.366Z,44.77
2019-04-14T07:33:29.479Z,37.67
2019-04-14T07:36:02.293Z,38.78
2019-04-14T07:38:32.410Z,37.83
2019-04-14T07:41:02.941Z,39.15
2019-04-14T07:43:35.851Z,43.17
2019-04-14T07:46:09.116Z,40.63
2019-04-14T07:48:48.880Z,40.33
2019-04-14T07:51:25.327Z,41.48
2019-04-14T07:53:55.438Z,39.20
2019-04-14T07:56:25.535Z,40.58
2019-04-14T07:59:07.542Z,44.67
2019-04-14T08:01:37.993Z,39.63
2019-04-14T08:04:14.154Z,40.60
2019-04-14T08:06:44.254Z,42.03
2019-04-14T08:09:13.071Z,44.20
2019-04-14T08:11:41.519Z,39.78
2019-04-14T08:14:09.986Z,39.25
2019-04-14T08:16:38.732Z,41.80
2019-04-14T08:19:07.627Z,44.30
2019-04-14T08:21:36.083Z,42.23
2019-04-14T08:24:04.903Z,41.68
2019-04-14T08:26:33.359Z,39.58
2019-04-14T08:29:02.181Z,41.98
2019-04-14T08:31:30.703Z,41.35
2019-04-14T08:33:59.178Z,39.18
2019-04-14T08:36:27.954Z,39.70
2019-04-14T08:38:56.429Z,39.58
2019-04-14T08:41:25.455Z,39.65
2019-04-14T08:43:55.571Z,39.13
2019-04-14T08:46:34.767Z,39.65
2019-04-14T08:49:17.152Z,38.00
2019-04-14T08:51:52.977Z,37.23
2019-04-14T08:54:26.012Z,35.73
2019-04-14T08:56:59.131Z,34.45
2019-04-14T08:59:45.715Z,35.43
2019-04-14T09:02:28.227Z,34.30
2019-04-14T09:05:13.907Z,32.95
2019-04-14T09:07:46.625Z,32.38
2019-04-14T09:10:16.813Z,33.88
2019-04-14T09:12:50.071Z,34.80
2019-04-14T09:15:18.544Z,34.25
2019-04-14T09:17:47.287Z,35.10
2019-04-14T09:20:15.831Z,36.93
2019-04-14T09:22:44.291Z,40.28
2019-04-14T09:25:13.044Z,38.00
2019-04-14T09:27:41.490Z,39.03
2019-04-14T09:30:10.423Z,38.92
2019-04-14T09:32:39.215Z,40.28
2019-04-14T09:35:08.412Z,35.45
2019-04-14T09:37:36.866Z,33.38
2019-04-14T09:40:05.764Z,35.63
2019-04-14T09:42:34.235Z,35.48
2019-04-14T09:45:02.700Z,35.23
2019-04-14T09:47:31.248Z,35.52
2019-04-14T09:49:59.695Z,37.30
2019-04-14T09:52:28.169Z,37.40
2019-04-14T09:54:56.619Z,35.80
2019-04-14T09:57:25.095Z,36.35
2019-04-14T09:59:53.555Z,35.73
2019-04-14T10:02:22.374Z,37.25
2019-04-14T10:04:50.840Z,35.58
2019-04-14T10:07:19.302Z,36.42
2019-04-14T10:09:48.140Z,34.83
2019-04-14T10:12:17.040Z,34.92
2019-04-14T10:14:45.498Z,37.98
2019-04-14T10:17:14.311Z,37.98
2019-04-14T10:19:42.769Z,39.95
2019-04-14T10:22:11.310Z,38.00
2019-04-14T10:24:40.080Z,38.98
2019-04-14T10:27:08.627Z,39.73
2019-04-14T10:29:37.340Z,37.50
2019-04-14T10:32:05.886Z,36.68
2019-04-14T10:34:34.340Z,38.28
2019-04-14T10:37:02.841Z,37.40
2019-04-14T10:39:31.340Z,36.88
2019-04-14T10:42:00.092Z,36.60
2019-04-14T10:44:28.554Z,34.55
2019-04-14T10:46:57.375Z,34.58
2019-04-14T10:49:25.922Z,35.68
2019-04-14T10:51:54.747Z,33.02
2019-04-14T10:54:23.215Z,34.67
2019-04-14T10:56:51.668Z,31.42
2019-04-14T10:59:20.411Z,33.48
2019-04-14T11:01:48.872Z,31.17
2019-04-14T11:04:17.690Z,30.60
2019-04-14T11:06:57.431Z,32.42
2019-04-14T11:09:26.167Z,28.32
2019-04-14T11:11:54.619Z,27.80
2019-04-14T11:14:23.398Z,30.23
2019-04-14T11:16:52.196Z,27.13
2019-04-14T11:19:20.674Z,30.52
2019-04-14T11:21:49.126Z,28.65
2019-04-14T11:24:17.604Z,27.40
2019-04-14T11:26:46.064Z,24.80
2019-04-14T11:29:14.923Z,26.33
2019-04-14T11:31:47.715Z,24.80
2019-04-14T11:34:17.834Z,25.92
2019-04-14T11:36:50.983Z,26.52
2019-04-14T11:39:21.103Z,21.50
2019-04-14T11:41:49.639Z,23.67
2019-04-14T11:44:18.179Z,24.02
2019-04-14T11:46:46.921Z,23.92
2019-04-14T11:49:15.714Z,25.00
2019-04-14T11:51:54.688Z,23.35
2019-04-14T11:54:15.139Z,21.30
2019-04-14T11:56:43.602Z,22.15
2019-04-14T11:59:12.136Z,22.48
2019-04-14T12:01:58.811Z,21.60
2019-04-14T12:04:31.664Z,23.20
2019-04-14T12:07:07.875Z,23.83
2019-04-14T12:09:40.920Z,25.48
2019-04-14T12:12:10.135Z,24.37
2019-04-14T12:14:38.943Z,23.55
2019-04-14T12:17:07.415Z,23.12
2019-04-14T12:19:36.226Z,22.10
2019-04-14T12:22:08.645Z,21.17
2019-04-14T12:24:35.311Z,19.90
2019-04-14T12:27:04.043Z,20.17
2019-04-14T12:29:32.611Z,21.55
2019-04-14T12:32:01.924Z,17.65
2019-04-14T12:34:30.389Z,18.87
2019-04-14T12:36:58.859Z,22.37
2019-04-14T12:39:27.319Z,19.23
2019-04-14T12:42:07.430Z,21.02
2019-04-14T12:44:37.863Z,20.27
2019-04-14T12:47:10.700Z,18.05
2019-04-14T12:49:41.075Z,21.40
2019-04-14T12:52:21.623Z,22.42
2019-04-14T12:54:46.899Z,20.15
2019-04-14T12:57:17.380Z,20.70
2019-04-14T12:59:56.119Z,22.15
2019-04-14T13:02:26.236Z,21.27
2019-04-14T13:04:55.468Z,23.30
2019-04-14T13:07:24.523Z,22.98
2019-04-14T13:09:52.985Z,22.52
2019-04-14T13:12:21.538Z,22.75
2019-04-14T13:14:50.284Z,24.02
2019-04-14T13:17:19.010Z,18.90
2019-04-14T13:19:47.771Z,19.67
2019-04-14T13:22:16.663Z,20.32
2019-04-14T13:24:45.460Z,23.05
2019-04-14T13:27:14.012Z,21.15
2019-04-14T13:29:42.463Z,20.08
2019-04-14T13:32:10.943Z,19.50
2019-04-14T13:34:39.399Z,22.02
2019-04-14T13:37:08.192Z,23.15
2019-04-14T13:39:36.657Z,22.52
2019-04-14T13:42:05.191Z,21.97
2019-04-14T13:44:33.960Z,20.30
2019-04-14T13:47:02.858Z,21.05
2019-04-14T13:49:31.406Z,22.70
2019-04-14T13:52:00.234Z,22.10
2019-04-14T13:54:28.782Z,22.17
2019-04-14T13:56:57.235Z,23.77
2019-04-14T13:59:25.994Z,22.00
2019-04-14T14:01:54.783Z,20.75
2019-04-14T14:04:23.268Z,22.07
2019-04-14T14:06:51.731Z,21.52
2019-04-14T14:09:20.276Z,21.90
2019-04-14T14:11:52.776Z,25.08
2019-04-14T14:14:22.895Z,22.60
2019-04-14T14:16:52.998Z,23.87
2019-04-14T14:19:23.181Z,22.70
2019-04-14T14:21:53.351Z,24.45
2019-04-14T14:24:35.929Z,24.32
2019-04-14T14:27:06.560Z,25.70
2019-04-14T14:29:35.107Z,21.37
2019-04-14T14:32:05.495Z,24.35
2019-04-14T14:34:34.035Z,23.70
2019-04-14T14:37:02.563Z,23.32
2019-04-14T14:39:31.034Z,22.55
2019-04-14T14:41:59.831Z,24.15
2019-04-14T14:44:36.299Z,25.68
2019-04-14T14:47:21.516Z,25.88
2019-04-14T14:50:08.075Z,26.00
2019-04-14T14:52:37.799Z,25.65
2019-04-14T14:55:07.383Z,26.77
2019-04-14T14:57:35.831Z,25.23
2019-04-14T15:00:09.069Z,26.52
2019-04-14T15:02:37.528Z,30.10
2019-04-14T15:05:07.328Z,30.43
2019-04-14T15:07:36.059Z,28.30
2019-04-14T15:10:07.106Z,28.57
2019-04-14T15:12:35.559Z,27.93
2019-04-14T15:15:05.675Z,28.23
2019-04-14T15:17:34.124Z,29.10
2019-04-14T15:20:02.889Z,27.70
2019-04-14T15:22:31.415Z,23.10
2019-04-14T15:25:00.192Z,22.00
2019-04-14T15:27:28.678Z,20.50
2019-04-14T15:29:57.435Z,20.70
2019-04-14T15:32:25.946Z,20.90
2019-04-14T15:34:54.823Z,21.55
2019-04-14T15:37:23.283Z,24.95
2019-04-14T15:39:51.760Z,23.25
2019-04-14T15:42:20.219Z,25.27
2019-04-14T15:44:49.072Z,25.62
2019-04-14T15:47:17.871Z,27.60
2019-04-14T15:49:46.654Z,26.10
2019-04-14T15:52:15.127Z,24.92
2019-04-14T15:54:43.935Z,26.75
2019-04-14T15:57:14.063Z,28.80
2019-04-14T15:59:56.260Z,27.10
2019-04-14T16:02:32.091Z,27.60
2019-04-14T16:05:02.544Z,29.42
2019-04-14T16:07:41.900Z,30.95
2019-04-14T16:10:12.317Z,30.27
2019-04-14T16:12:42.495Z,28.15
2019-04-14T16:15:29.443Z,28.20
2019-04-14T16:17:59.967Z,31.07
2019-04-14T16:20:30.071Z,33.73
2019-04-14T16:22:58.884Z,32.58
2019-04-14T16:25:44.255Z,33.88
2019-04-14T16:28:14.359Z,31.40
2019-04-14T16:30:47.367Z,30.70
2019-04-14T16:33:23.627Z,31.62
2019-04-14T16:35:52.630Z,33.15
2019-04-14T16:38:21.091Z,31.52
2019-04-14T16:40:49.908Z,31.70
2019-04-14T16:43:19.003Z,30.20
2019-04-14T16:45:47.468Z,31.15
2019-04-14T16:48:16.288Z,30.10
2019-04-14T16:50:44.816Z,30.62
2019-04-14T16:53:17.860Z,33.30
2019-04-14T16:55:48.292Z,31.57
2019-04-14T16:58:18.724Z,31.05
2019-04-14T17:00:58.156Z,31.52
2019-04-14T17:03:26.948Z,33.48
2019-04-14T17:05:55.668Z,31.70
2019-04-14T17:08:24.143Z,33.53
2019-04-14T17:10:52.592Z,31.52
2019-04-14T17:13:22.073Z,32.03
2019-04-14T17:16:08.915Z,31.82
2019-04-14T17:18:45.272Z,30.90
2019-04-14T17:21:15.715Z,36.65
2019-04-14T17:23:45.907Z,34.05
2019-04-14T17:26:27.876Z,34.85
2019-04-14T17:29:01.028Z,35.08
2019-04-14T17:31:34.111Z,35.03
2019-04-14T17:34:19.543Z,40.03
2019-04-14T17:36:58.963Z,37.48
2019-04-14T17:39:41.512Z,42.50
2019-04-14T17:42:23.839Z,43.17
2019-04-14T17:44:56.915Z,41.25
2019-04-14T17:47:33.291Z,44.33
2019-04-14T17:50:06.381Z,38.80
2019-04-14T17:52:42.478Z,38.73
2019-04-14T17:55:13.078Z,39.33
2019-04-14T17:57:52.814Z,42.83
2019-04-14T18:00:28.720Z,43.52
2019-04-14T18:02:59.099Z,43.83
2019-04-14T18:05:41.814Z,41.70
2019-04-14T18:08:11.983Z,39.30
2019-04-14T18:10:42.464Z,39.75
2019-04-14T18:13:15.275Z,39.45
2019-04-14T18:15:54.076Z,37.23
2019-04-14T18:18:36.385Z,35.35
2019-04-14T18:21:06.903Z,34.73
2019-04-14T18:23:35.687Z,33.13
2019-04-14T18:26:04.631Z,33.65
2019-04-14T18:28:34.727Z,33.60
2019-04-14T18:31:14.047Z,33.83
2019-04-14T18:33:59.682Z,34.88
2019-04-14T18:36:35.708Z,35.58
2019-04-14T18:39:08.903Z,35.15
2019-04-14T18:41:57.260Z,37.50
2019-04-14T18:44:45.863Z,35.10
2019-04-14T18:47:32.563Z,38.33
2019-04-14T18:50:05.436Z,38.15
2019-04-14T18:52:54.092Z,37.73
2019-04-14T18:55:27.292Z,35.08
2019-04-14T18:57:57.470Z,37.53
2019-04-14T19:00:33.526Z,34.20
2019-04-14T19:03:03.586Z,36.00
2019-04-14T19:05:32.048Z,33.35
2019-04-14T19:08:00.522Z,34.25
2019-04-14T19:10:29.248Z,33.63
2019-04-14T19:13:02.211Z,33.70
2019-04-14T19:15:32.311Z,32.67
2019-04-14T19:18:08.437Z,34.35
2019-04-14T19:20:38.602Z,32.98
2019-04-14T19:23:07.071Z,32.85
2019-04-14T19:25:35.528Z,33.83
2019-04-14T19:28:03.999Z,34.78
2019-04-14T19:30:32.460Z,36.23
2019-04-14T19:33:01.279Z,34.55
2019-04-14T19:35:30.067Z,35.03
2019-04-14T19:37:58.864Z,38.63
2019-04-14T19:40:27.759Z,41.20
2019-04-14T19:42:56.311Z,42.25
2019-04-14T19:45:25.135Z,41.42
2019-04-14T19:47:53.611Z,44.90
2019-04-14T19:50:22.419Z,40.75
2019-04-14T19:52:50.879Z,38.38
2019-04-14T19:55:20.560Z,38.05
2019-04-14T19:57:49.716Z,38.20
2019-04-14T20:00:18.603Z,35.92
2019-04-14T20:02:47.403Z,35.80
2019-04-14T20:05:16.195Z,35.90
2019-04-14T20:07:44.989Z,34.30
2019-04-14T20:10:13.680Z,35.50
2019-04-14T20:12:42.209Z,33.90
2019-04-14T20:15:12.571Z,35.98
2019-04-14T20:17:59.502Z,34.15
2019-04-14T20:20:49.251Z,34.95
2019-04-14T20:23:19.445Z,32.73
2019-04-14T20:26:06.095Z,33.38
2019-04-14T20:28:48.808Z,32.85
2019-04-14T20:31:28.245Z,32.10
2019-04-14T20:33:56.792Z,35.55
2019-04-14T20:36:25.317Z,33.65
2019-04-14T20:38:55.080Z,33.78
2019-04-14T20:41:23.812Z,32.30
2019-04-14T20:43:52.268Z,34.95
2019-04-14T20:46:20.750Z,33.92
2019-04-14T20:48:49.484Z,33.95
2019-04-14T20:51:17.956Z,39.55
2019-04-14T20:53:46.855Z,41.40
2019-04-14T20:56:15.662Z,42.43
2019-04-14T20:58:44.190Z,42.23
2019-04-14T21:01:13.835Z,44.85
2019-04-14T21:03:46.496Z,40.03
2019-04-14T21:06:19.427Z,42.00
2019-04-14T21:08:53.657Z,37.23
2019-04-14T21:11:38.759Z,34.10
2019-04-14T21:14:25.022Z,38.17
2019-04-14T21:16:55.207Z,43.73
2019-04-14T21:19:25.652Z,45.52
2019-04-14T21:21:56.084Z,42.00
2019-04-14T21:24:42.500Z,47.90
2019-04-14T21:27:16.387Z,48.90
2019-04-14T21:29:52.493Z,52.93
2019-04-14T21:32:22.670Z,52.00
2019-04-14T21:35:02.303Z,43.52
2019-04-14T21:37:39.907Z,43.45
2019-04-14T21:40:22.515Z,42.93
2019-04-14T21:42:50.994Z,43.42
2019-04-14T21:45:19.790Z,42.78
2019-04-14T21:47:51.340Z,41.70
2019-04-14T21:50:20.240Z,41.63
2019-04-14T21:52:49.953Z,40.03
2019-04-14T21:55:18.619Z,40.25
2019-04-14T21:57:49.291Z,38.60
2019-04-14T22:00:38.588Z,40.90
2019-04-14T22:03:12.540Z,45.12
2019-04-14T22:05:43.075Z,40.28
2019-04-14T22:08:14.776Z,39.65
2019-04-14T22:10:45.267Z,42.73
2019-04-14T22:13:14.268Z,40.05
2019-04-14T22:15:42.728Z,40.78
2019-04-14T22:18:11.216Z,42.25
2019-04-14T22:20:40.037Z,38.67
2019-04-14T22:23:10.464Z,49.35
2019-04-14T22:25:38.923Z,46.63
2019-04-14T22:28:07.745Z,55.50
2019-04-14T22:30:36.631Z,40.85
2019-04-14T22:33:05.533Z,40.73
2019-04-14T22:35:34.079Z,41.28
2019-04-14T22:38:02.563Z,39.53
2019-04-14T22:40:31.094Z,38.98
2019-04-14T22:42:59.986Z,39.40
2019-04-14T22:45:28.731Z,38.58
2019-04-14T22:47:57.567Z,38.08
2019-04-14T22:50:26.363Z,40.20
2019-04-14T22:52:54.888Z,38.58
2019-04-14T22:55:23.639Z,37.78
2019-04-14T22:57:52.436Z,37.65
2019-04-14T23:00:31.468Z,44.15
2019-04-14T23:03:01.572Z,46.60
2019-04-14T23:05:48.023Z,59.20
2019-04-14T23:08:33.399Z,55.98
2019-04-14T23:11:19.802Z,64.85
2019-04-14T23:14:06.547Z,43.35
2019-04-14T23:16:36.723Z,39.20
2019-04-14T23:19:07.099Z,38.33
2019-04-14T23:21:39.863Z,35.60
2019-04-14T23:24:10.311Z,35.63
2019-04-14T23:26:51.928Z,37.00
2019-04-14T23:29:10.653Z,38.35
2019-04-14T23:31:39.123Z,37.90
2019-04-14T23:34:07.576Z,35.03
2019-04-14T23:36:36.046Z,36.33
2019-04-14T23:39:07.984Z,35.03
2019-04-14T23:41:36.867Z,35.55
2019-04-14T23:44:05.666Z,37.05
2019-04-14T23:46:34.459Z,38.90
2019-04-14T23:49:02.924Z,36.98
2019-04-14T23:51:31.806Z,46.92
2019-04-14T23:54:00.272Z,58.38
2019-04-14T23:56:29.120Z,56.68
2019-04-14T23:58:57.848Z,44.55
